Terminal Aerodrome Forecast
Issued by NWS

Home | Current Version | Previous Version | Text Only | Print | Product List | Glossary On
Versions: 1 2 3 4 5 6 7 8 9 10 11 12 13 14 15 16 17 18 19 20 21 22 23 24 25 26 27 28 29 30 31 32
000
FTUS41 KOKX 040224 AAA
TAFSWF
TAF AMD
KSWF 040224Z 0402/0506 31008KT P6SM BKN050
     FM041200 33011KT P6SM FEW050
     FM042000 33007KT P6SM FEW050 SCT250
     FM050000 VRB03KT P6SM BKN250
     FM050300 VRB02KT P6SM BKN120 BKN250
      AMD NOT SKED=

USA.gov is the U.S. government's official web portal to all federal, state and local government web resources and services.